sensor_id;sensor_type;location;lat;lon;timestamp;P1;durP1;ratioP1;P2;durP2;ratioP2
43511;SDS011;34054;52.100;5.116;2023-01-16T00:00:01;4.93;;;4.07;;
43511;SDS011;34054;52.100;5.116;2023-01-16T00:00:35;5.60;;;4.78;;
43511;SDS011;34054;52.100;5.116;2023-01-16T00:01:07;7.18;;;5.85;;
43511;SDS011;34054;52.100;5.116;2023-01-16T00:01:38;5.55;;;4.65;;
43511;SDS011;34054;52.100;5.116;2023-01-16T00:02:11;6.10;;;4.75;;
43511;SDS011;34054;52.100;5.116;2023-01-16T00:02:43;8.07;;;5.65;;
43511;SDS011;34054;52.100;5.116;2023-01-16T00:03:14;6.47;;;4.97;;
43511;SDS011;34054;52.100;5.116;2023-01-16T00:03:47;4.65;;;4.25;;
43511;SDS011;34054;52.100;5.116;2023-01-16T00:04:19;7.70;;;5.72;;
43511;SDS011;34054;52.100;5.116;2023-01-16T00:04:52;5.63;;;4.82;;
43511;SDS011;34054;52.100;5.116;2023-01-16T00:05:24;7.90;;;4.72;;
43511;SDS011;34054;52.100;5.116;2023-01-16T00:05:56;6.28;;;5.15;;
43511;SDS011;34054;52.100;5.116;2023-01-16T00:06:28;4.75;;;4.35;;
43511;SDS011;34054;52.100;5.116;2023-01-16T00:07:00;5.88;;;5.05;;
43511;SDS011;34054;52.100;5.116;2023-01-16T00:07:31;5.55;;;5.05;;
43511;SDS011;34054;52.100;5.116;2023-01-16T00:08:04;4.65;;;4.07;;
43511;SDS011;34054;52.100;5.116;2023-01-16T00:08:35;10.40;;;5.63;;
43511;SDS011;34054;52.100;5.116;2023-01-16T00:09:07;6.63;;;5.40;;
43511;SDS011;34054;52.100;5.116;2023-01-16T00:09:40;8.43;;;5.22;;
43511;SDS011;34054;52.100;5.116;2023-01-16T00:10:11;4.93;;;4.25;;
43511;SDS011;34054;52.100;5.116;2023-01-16T00:10:43;6.68;;;5.45;;
43511;SDS011;34054;52.100;5.116;2023-01-16T00:11:15;7.38;;;4.53;;
43511;SDS011;34054;52.100;5.116;2023-01-16T00:11:48;6.10;;;4.60;;
43511;SDS011;34054;52.100;5.116;2023-01-16T00:12:21;10.57;;;5.55;;
43511;SDS011;34054;52.100;5.116;2023-01-16T00:12:52;7.10;;;5.93;;
43511;SDS011;34054;52.100;5.116;2023-01-16T00:13:25;5.53;;;5.03;;
43511;SDS011;34054;52.100;5.116;2023-01-16T00:13:57;7.97;;;6.30;;
43511;SDS011;34054;52.100;5.116;2023-01-16T00:14:29;5.40;;;4.53;;
43511;SDS011;34054;52.100;5.116;2023-01-16T00:15:02;5.75;;;4.03;;
43511;SDS011;34054;52.100;5.116;2023-01-16T00:15:35;9.10;;;5.40;;
43511;SDS011;34054;52.100;5.116;2023-01-16T00:16:06;10.30;;;4.97;;
43511;SDS011;34054;52.100;5.116;2023-01-16T00:16:39;7.00;;;4.20;;
43511;SDS011;34054;52.100;5.116;2023-01-16T00:17:11;8.85;;;4.43;;
43511;SDS011;34054;52.100;5.116;2023-01-16T00:17:42;7.18;;;4.90;;
43511;SDS011;34054;52.100;5.116;2023-01-16T00:18:15;5.57;;;4.80;;
43511;SDS011;34054;52.100;5.116;2023-01-16T00:18:47;6.75;;;5.13;;
43511;SDS011;34054;52.100;5.116;2023-01-16T00:19:19;7.57;;;5.03;;
43511;SDS011;34054;52.100;5.116;2023-01-16T00:19:52;5.15;;;4.40;;
43511;SDS011;34054;52.100;5.116;2023-01-16T00:20:24;6.22;;;5.60;;
43511;SDS011;34054;52.100;5.116;2023-01-16T00:20:55;8.88;;;6.68;;
43511;SDS011;34054;52.100;5.116;2023-01-16T00:21:28;7.88;;;6.75;;
43511;SDS011;34054;52.100;5.116;2023-01-16T00:21:59;8.35;;;6.68;;
43511;SDS011;34054;52.100;5.116;2023-01-16T00:22:31;8.27;;;6.38;;
43511;SDS011;34054;52.100;5.116;2023-01-16T00:23:03;6.88;;;5.97;;
43511;SDS011;34054;52.100;5.116;2023-01-16T00:23:35;8.27;;;6.18;;
43511;SDS011;34054;52.100;5.116;2023-01-16T00:24:07;10.25;;;7.43;;
43511;SDS011;34054;52.100;5.116;2023-01-16T00:24:40;7.97;;;6.32;;
43511;SDS011;34054;52.100;5.116;2023-01-16T00:25:11;8.02;;;5.80;;
43511;SDS011;34054;52.100;5.116;2023-01-16T00:25:43;6.30;;;5.70;;
43511;SDS011;34054;52.100;5.116;2023-01-16T00:26:16;7.93;;;7.07;;
43511;SDS011;34054;52.100;5.116;2023-01-16T00:26:49;7.10;;;6.00;;
43511;SDS011;34054;52.100;5.116;2023-01-16T00:27:23;9.45;;;8.55;;
43511;SDS011;34054;52.100;5.116;2023-01-16T00:27:55;9.88;;;7.97;;
43511;SDS011;34054;52.100;5.116;2023-01-16T00:28:27;9.00;;;7.18;;
43511;SDS011;34054;52.100;5.116;2023-01-16T00:28:58;7.45;;;6.65;;
43511;SDS011;34054;52.100;5.116;2023-01-16T00:29:32;11.32;;;8.65;;
43511;SDS011;34054;52.100;5.116;2023-01-16T00:30:04;6.90;;;6.20;;
43511;SDS011;34054;52.100;5.116;2023-01-16T00:30:38;9.38;;;8.43;;
43511;SDS011;34054;52.100;5.116;2023-01-16T00:31:11;10.60;;;8.38;;
43511;SDS011;34054;52.100;5.116;2023-01-16T00:31:44;8.38;;;7.57;;
43511;SDS011;34054;52.100;5.116;2023-01-16T00:32:15;8.52;;;7.63;;
43511;SDS011;34054;52.100;5.116;2023-01-16T00:32:47;9.18;;;8.27;;
43511;SDS011;34054;52.100;5.116;2023-01-16T00:33:19;11.80;;;9.25;;
43511;SDS011;34054;52.100;5.116;2023-01-16T00:33:51;9.93;;;8.23;;
43511;SDS011;34054;52.100;5.116;2023-01-16T00:34:23;15.20;;;9.68;;
43511;SDS011;34054;52.100;5.116;2023-01-16T00:34:56;9.95;;;8.95;;
43511;SDS011;34054;52.100;5.116;2023-01-16T00:35:28;13.80;;;7.57;;
43511;SDS011;34054;52.100;5.116;2023-01-16T00:36:01;13.20;;;8.98;;
43511;SDS011;34054;52.100;5.116;2023-01-16T00:36:33;11.95;;;8.82;;
43511;SDS011;34054;52.100;5.116;2023-01-16T00:37:05;10.55;;;9.13;;
43511;SDS011;34054;52.100;5.116;2023-01-16T00:37:37;10.27;;;9.13;;
43511;SDS011;34054;52.100;5.116;2023-01-16T00:38:08;10.75;;;8.90;;
43511;SDS011;34054;52.100;5.116;2023-01-16T00:38:41;12.32;;;9.55;;
43511;SDS011;34054;52.100;5.116;2023-01-16T00:39:12;10.27;;;9.07;;
43511;SDS011;34054;52.100;5.116;2023-01-16T00:39:45;10.27;;;9.18;;
43511;SDS011;34054;52.100;5.116;2023-01-16T00:40:16;9.63;;;8.63;;
43511;SDS011;34054;52.100;5.116;2023-01-16T00:40:48;9.57;;;8.20;;
43511;SDS011;34054;52.100;5.116;2023-01-16T00:41:21;9.82;;;8.82;;
43511;SDS011;34054;52.100;5.116;2023-01-16T00:41:53;10.98;;;8.88;;
43511;SDS011;34054;52.100;5.116;2023-01-16T00:42:25;12.02;;;10.85;;
43511;SDS011;34054;52.100;5.116;2023-01-16T00:42:58;11.18;;;9.98;;
43511;SDS011;34054;52.100;5.116;2023-01-16T00:43:30;15.85;;;12.50;;
43511;SDS011;34054;52.100;5.116;2023-01-16T00:44:02;10.63;;;9.57;;
43511;SDS011;34054;52.100;5.116;2023-01-16T00:44:34;10.40;;;9.43;;
43511;SDS011;34054;52.100;5.116;2023-01-16T00:45:06;10.85;;;9.80;;
43511;SDS011;34054;52.100;5.116;2023-01-16T00:45:40;10.48;;;9.48;;
43511;SDS011;34054;52.100;5.116;2023-01-16T00:46:11;12.23;;;10.52;;
43511;SDS011;34054;52.100;5.116;2023-01-16T00:46:44;12.60;;;11.13;;
43511;SDS011;34054;52.100;5.116;2023-01-16T00:47:15;11.38;;;10.15;;
43511;SDS011;34054;52.100;5.116;2023-01-16T00:47:47;10.57;;;9.43;;
43511;SDS011;34054;52.100;5.116;2023-01-16T00:48:19;10.55;;;9.27;;
43511;SDS011;34054;52.100;5.116;2023-01-16T00:48:51;16.45;;;9.98;;
43511;SDS011;34054;52.100;5.116;2023-01-16T00:49:24;10.43;;;9.32;;
43511;SDS011;34054;52.100;5.116;2023-01-16T00:49:55;10.38;;;9.35;;
43511;SDS011;34054;52.100;5.116;2023-01-16T00:50:27;12.07;;;10.98;;
43511;SDS011;34054;52.100;5.116;2023-01-16T00:50:59;13.20;;;11.93;;
43511;SDS011;34054;52.100;5.116;2023-01-16T00:51:31;11.40;;;10.20;;
43511;SDS011;34054;52.100;5.116;2023-01-16T00:52:03;16.60;;;11.43;;
43511;SDS011;34054;52.100;5.116;2023-01-16T00:52:36;11.48;;;10.15;;
43511;SDS011;34054;52.100;5.116;2023-01-16T00:53:08;13.27;;;11.88;;
43511;SDS011;34054;52.100;5.116;2023-01-16T00:53:40;11.27;;;10.20;;
43511;SDS011;34054;52.100;5.116;2023-01-16T00:54:12;12.95;;;10.25;;
43511;SDS011;34054;52.100;5.116;2023-01-16T00:54:44;12.65;;;11.35;;
43511;SDS011;34054;52.100;5.116;2023-01-16T00:55:16;11.85;;;10.75;;
43511;SDS011;34054;52.100;5.116;2023-01-16T00:55:49;12.25;;;11.15;;
43511;SDS011;34054;52.100;5.116;2023-01-16T00:56:23;12.20;;;11.00;;
43511;SDS011;34054;52.100;5.116;2023-01-16T00:56:54;12.02;;;10.80;;
43511;SDS011;34054;52.100;5.116;2023-01-16T00:57:27;10.38;;;9.38;;
43511;SDS011;34054;52.100;5.116;2023-01-16T00:58:00;15.43;;;11.15;;
43511;SDS011;34054;52.100;5.116;2023-01-16T00:58:31;13.32;;;11.95;;
43511;SDS011;34054;52.100;5.116;2023-01-16T00:59:05;11.13;;;9.57;;
43511;SDS011;34054;52.100;5.116;2023-01-16T00:59:37;12.70;;;11.50;;
43511;SDS011;34054;52.100;5.116;2023-01-16T01:00:09;13.32;;;11.68;;
43511;SDS011;34054;52.100;5.116;2023-01-16T01:00:42;14.88;;;11.65;;
43511;SDS011;34054;52.100;5.116;2023-01-16T01:01:14;11.90;;;10.68;;
43511;SDS011;34054;52.100;5.116;2023-01-16T01:01:45;12.25;;;10.00;;
43511;SDS011;34054;52.100;5.116;2023-01-16T01:02:18;12.10;;;10.23;;
43511;SDS011;34054;52.100;5.116;2023-01-16T01:02:50;16.40;;;12.02;;
43511;SDS011;34054;52.100;5.116;2023-01-16T01:03:21;14.38;;;13.07;;
43511;SDS011;34054;52.100;5.116;2023-01-16T01:03:54;12.05;;;10.95;;
43511;SDS011;34054;52.100;5.116;2023-01-16T01:04:26;17.20;;;10.43;;
43511;SDS011;34054;52.100;5.116;2023-01-16T01:04:58;12.32;;;11.05;;
43511;SDS011;34054;52.100;5.116;2023-01-16T01:05:31;10.93;;;9.43;;
43511;SDS011;34054;52.100;5.116;2023-01-16T01:06:08;11.93;;;10.75;;
43511;SDS011;34054;52.100;5.116;2023-01-16T01:06:42;15.38;;;11.27;;
43511;SDS011;34054;52.100;5.116;2023-01-16T01:07:13;15.50;;;11.40;;
43511;SDS011;34054;52.100;5.116;2023-01-16T01:07:46;15.15;;;9.60;;
43511;SDS011;34054;52.100;5.116;2023-01-16T01:08:17;12.88;;;10.13;;
43511;SDS011;34054;52.100;5.116;2023-01-16T01:08:51;13.32;;;11.18;;
43511;SDS011;34054;52.100;5.116;2023-01-16T01:09:22;10.27;;;8.60;;
43511;SDS011;34054;52.100;5.116;2023-01-16T01:09:54;15.02;;;9.38;;
43511;SDS011;34054;52.100;5.116;2023-01-16T01:10:26;10.35;;;9.25;;
43511;SDS011;34054;52.100;5.116;2023-01-16T01:11:04;14.82;;;9.38;;
43511;SDS011;34054;52.100;5.116;2023-01-16T01:11:38;10.52;;;9.35;;
43511;SDS011;34054;52.100;5.116;2023-01-16T01:12:11;15.00;;;10.82;;
43511;SDS011;34054;52.100;5.116;2023-01-16T01:12:44;13.50;;;10.80;;
43511;SDS011;34054;52.100;5.116;2023-01-16T01:13:15;10.18;;;9.07;;
43511;SDS011;34054;52.100;5.116;2023-01-16T01:13:48;14.05;;;9.35;;
43511;SDS011;34054;52.100;5.116;2023-01-16T01:14:20;11.02;;;8.95;;
43511;SDS011;34054;52.100;5.116;2023-01-16T01:14:51;10.93;;;9.35;;
43511;SDS011;34054;52.100;5.116;2023-01-16T01:15:24;11.85;;;10.65;;
43511;SDS011;34054;52.100;5.116;2023-01-16T01:15:55;11.77;;;9.15;;
43511;SDS011;34054;52.100;5.116;2023-01-16T01:16:27;12.25;;;10.77;;
43511;SDS011;34054;52.100;5.116;2023-01-16T01:17:00;13.93;;;9.20;;
43511;SDS011;34054;52.100;5.116;2023-01-16T01:17:31;13.98;;;9.18;;
43511;SDS011;34054;52.100;5.116;2023-01-16T01:18:03;12.63;;;9.52;;
43511;SDS011;34054;52.100;5.116;2023-01-16T01:18:37;11.40;;;9.73;;
43511;SDS011;34054;52.100;5.116;2023-01-16T01:19:09;14.48;;;9.48;;
43511;SDS011;34054;52.100;5.116;2023-01-16T01:19:40;11.02;;;8.80;;
43511;SDS011;34054;52.100;5.116;2023-01-16T01:20:13;11.07;;;9.98;;
43511;SDS011;34054;52.100;5.116;2023-01-16T01:20:46;10.45;;;9.45;;
43511;SDS011;34054;52.100;5.116;2023-01-16T01:21:17;9.98;;;8.68;;
43511;SDS011;34054;52.100;5.116;2023-01-16T01:21:50;8.32;;;6.80;;
43511;SDS011;34054;52.100;5.116;2023-01-16T01:22:22;10.05;;;8.45;;
43511;SDS011;34054;52.100;5.116;2023-01-16T01:22:53;13.50;;;8.35;;
43511;SDS011;34054;52.100;5.116;2023-01-16T01:23:26;10.68;;;8.57;;
43511;SDS011;34054;52.100;5.116;2023-01-16T01:23:57;8.85;;;7.68;;
43511;SDS011;34054;52.100;5.116;2023-01-16T01:24:29;11.85;;;8.45;;
43511;SDS011;34054;52.100;5.116;2023-01-16T01:25:02;10.38;;;9.02;;
43511;SDS011;34054;52.100;5.116;2023-01-16T01:25:36;10.07;;;9.07;;
43511;SDS011;34054;52.100;5.116;2023-01-16T01:26:09;16.42;;;9.32;;
43511;SDS011;34054;52.100;5.116;2023-01-16T01:26:44;10.27;;;8.82;;
43511;SDS011;34054;52.100;5.116;2023-01-16T01:27:15;14.35;;;8.75;;
43511;SDS011;34054;52.100;5.116;2023-01-16T01:27:49;11.73;;;8.05;;
43511;SDS011;34054;52.100;5.116;2023-01-16T01:28:22;10.52;;;9.27;;
43511;SDS011;34054;52.100;5.116;2023-01-16T01:28:53;9.25;;;6.85;;
43511;SDS011;34054;52.100;5.116;2023-01-16T01:29:25;12.82;;;8.60;;
43511;SDS011;34054;52.100;5.116;2023-01-16T01:29:56;11.02;;;7.90;;
43511;SDS011;34054;52.100;5.116;2023-01-16T01:30:29;8.73;;;7.75;;
43511;SDS011;34054;52.100;5.116;2023-01-16T01:31:03;12.90;;;7.93;;
43511;SDS011;34054;52.100;5.116;2023-01-16T01:31:36;11.45;;;8.57;;
43511;SDS011;34054;52.100;5.116;2023-01-16T01:32:09;7.70;;;6.85;;
43511;SDS011;34054;52.100;5.116;2023-01-16T01:32:41;9.68;;;6.90;;
43511;SDS011;34054;52.100;5.116;2023-01-16T01:33:13;10.90;;;8.30;;
43511;SDS011;34054;52.100;5.116;2023-01-16T01:33:45;13.57;;;7.80;;
43511;SDS011;34054;52.100;5.116;2023-01-16T01:34:17;21.23;;;8.27;;
43511;SDS011;34054;52.100;5.116;2023-01-16T01:34:48;12.38;;;8.13;;
43511;SDS011;34054;52.100;5.116;2023-01-16T01:35:21;9.77;;;8.63;;
43511;SDS011;34054;52.100;5.116;2023-01-16T01:35:52;12.18;;;8.45;;
43511;SDS011;34054;52.100;5.116;2023-01-16T01:36:24;13.05;;;9.68;;
43511;SDS011;34054;52.100;5.116;2023-01-16T01:36:55;9.13;;;7.72;;
43511;SDS011;34054;52.100;5.116;2023-01-16T01:37:28;12.75;;;8.80;;
43511;SDS011;34054;52.100;5.116;2023-01-16T01:37:59;7.30;;;6.47;;
43511;SDS011;34054;52.100;5.116;2023-01-16T01:38:31;12.95;;;9.05;;
43511;SDS011;34054;52.100;5.116;2023-01-16T01:39:04;10.70;;;9.38;;
43511;SDS011;34054;52.100;5.116;2023-01-16T01:39:36;10.13;;;8.88;;
43511;SDS011;34054;52.100;5.116;2023-01-16T01:40:08;8.75;;;7.88;;
43511;SDS011;34054;52.100;5.116;2023-01-16T01:40:42;9.60;;;8.07;;
43511;SDS011;34054;52.100;5.116;2023-01-16T01:41:13;13.20;;;8.23;;
43511;SDS011;34054;52.100;5.116;2023-01-16T01:41:45;11.95;;;9.70;;
43511;SDS011;34054;52.100;5.116;2023-01-16T01:42:16;19.33;;;9.23;;
43511;SDS011;34054;52.100;5.116;2023-01-16T01:43:10;21.70;;;7.97;;
43511;SDS011;34054;52.100;5.116;2023-01-16T01:43:47;9.35;;;6.80;;
43511;SDS011;34054;52.100;5.116;2023-01-16T01:44:44;11.00;;;7.53;;
43511;SDS011;34054;52.100;5.116;2023-01-16T01:45:23;7.75;;;6.43;;
43511;SDS011;34054;52.100;5.116;2023-01-16T01:45:58;13.02;;;7.20;;
43511;SDS011;34054;52.100;5.116;2023-01-16T01:46:30;9.23;;;8.23;;
43511;SDS011;34054;52.100;5.116;2023-01-16T01:47:12;14.65;;;8.32;;
43511;SDS011;34054;52.100;5.116;2023-01-16T01:47:49;10.48;;;6.80;;
43511;SDS011;34054;52.100;5.116;2023-01-16T01:48:30;10.00;;;8.30;;
43511;SDS011;34054;52.100;5.116;2023-01-16T01:49:13;7.97;;;7.00;;
43511;SDS011;34054;52.100;5.116;2023-01-16T01:49:55;8.63;;;6.43;;
43511;SDS011;34054;52.100;5.116;2023-01-16T01:50:34;10.23;;;7.30;;
43511;SDS011;34054;52.100;5.116;2023-01-16T01:51:16;7.13;;;6.53;;
43511;SDS011;34054;52.100;5.116;2023-01-16T01:51:54;14.93;;;8.63;;
43511;SDS011;34054;52.100;5.116;2023-01-16T01:52:32;10.57;;;7.88;;
43511;SDS011;34054;52.100;5.116;2023-01-16T01:53:07;9.07;;;8.00;;
43511;SDS011;34054;52.100;5.116;2023-01-16T01:53:45;7.70;;;6.78;;
43511;SDS011;34054;52.100;5.116;2023-01-16T01:54:23;11.63;;;8.20;;
43511;SDS011;34054;52.100;5.116;2023-01-16T01:55:00;9.90;;;7.90;;
43511;SDS011;34054;52.100;5.116;2023-01-16T01:55:39;10.57;;;7.78;;
43511;SDS011;34054;52.100;5.116;2023-01-16T01:56:18;10.77;;;7.15;;
43511;SDS011;34054;52.100;5.116;2023-01-16T01:56:57;10.70;;;8.30;;
43511;SDS011;34054;52.100;5.116;2023-01-16T01:57:35;8.68;;;7.78;;
43511;SDS011;34054;52.100;5.116;2023-01-16T01:58:14;21.23;;;7.53;;
43511;SDS011;34054;52.100;5.116;2023-01-16T01:58:55;8.02;;;7.18;;
43511;SDS011;34054;52.100;5.116;2023-01-16T01:59:32;8.52;;;7.30;;
43511;SDS011;34054;52.100;5.116;2023-01-16T02:00:12;10.15;;;7.63;;
43511;SDS011;34054;52.100;5.116;2023-01-16T02:00:50;10.35;;;6.82;;
43511;SDS011;34054;52.100;5.116;2023-01-16T02:01:26;11.88;;;8.02;;
43511;SDS011;34054;52.100;5.116;2023-01-16T02:02:01;13.98;;;9.57;;
43511;SDS011;34054;52.100;5.116;2023-01-16T02:02:39;11.77;;;6.97;;
43511;SDS011;34054;52.100;5.116;2023-01-16T02:03:19;8.60;;;7.43;;
43511;SDS011;34054;52.100;5.116;2023-01-16T02:04:00;9.18;;;5.22;;
43511;SDS011;34054;52.100;5.116;2023-01-16T02:04:39;11.23;;;6.30;;
43511;SDS011;34054;52.100;5.116;2023-01-16T02:05:15;10.68;;;7.63;;
43511;SDS011;34054;52.100;5.116;2023-01-16T02:05:55;8.65;;;6.03;;
43511;SDS011;34054;52.100;5.116;2023-01-16T02:06:33;10.05;;;7.68;;
43511;SDS011;34054;52.100;5.116;2023-01-16T02:07:16;17.38;;;7.82;;
43511;SDS011;34054;52.100;5.116;2023-01-16T02:07:49;9.35;;;6.07;;
43511;SDS011;34054;52.100;5.116;2023-01-16T02:08:25;12.93;;;8.07;;
43511;SDS011;34054;52.100;5.116;2023-01-16T02:09:03;7.53;;;6.10;;
43511;SDS011;34054;52.100;5.116;2023-01-16T02:09:34;7.68;;;5.30;;
43511;SDS011;34054;52.100;5.116;2023-01-16T02:10:10;11.30;;;8.27;;
43511;SDS011;34054;52.100;5.116;2023-01-16T02:10:53;9.63;;;6.43;;
43511;SDS011;34054;52.100;5.116;2023-01-16T02:11:34;14.65;;;6.60;;
43511;SDS011;34054;52.100;5.116;2023-01-16T02:12:14;6.32;;;5.20;;
43511;SDS011;34054;52.100;5.116;2023-01-16T02:12:48;7.80;;;6.25;;
43511;SDS011;34054;52.100;5.116;2023-01-16T02:13:23;13.80;;;6.80;;
43511;SDS011;34054;52.100;5.116;2023-01-16T02:13:56;12.82;;;7.57;;
43511;SDS011;34054;52.100;5.116;2023-01-16T02:14:32;10.82;;;7.30;;
43511;SDS011;34054;52.100;5.116;2023-01-16T02:15:07;12.05;;;6.82;;
43511;SDS011;34054;52.100;5.116;2023-01-16T02:15:39;9.43;;;7.30;;
43511;SDS011;34054;52.100;5.116;2023-01-16T02:16:32;7.70;;;5.13;;
43511;SDS011;34054;52.100;5.116;2023-01-16T02:17:23;10.90;;;5.78;;
43511;SDS011;34054;52.100;5.116;2023-01-16T02:18:13;9.15;;;6.68;;
43511;SDS011;34054;52.100;5.116;2023-01-16T02:19:03;11.15;;;6.00;;
43511;SDS011;34054;52.100;5.116;2023-01-16T02:19:48;5.90;;;5.18;;
43511;SDS011;34054;52.100;5.116;2023-01-16T02:20:39;7.90;;;6.40;;
43511;SDS011;34054;52.100;5.116;2023-01-16T02:22:13;7.22;;;5.68;;
43511;SDS011;34054;52.100;5.116;2023-01-16T02:23:47;9.10;;;6.35;;
43511;SDS011;34054;52.100;5.116;2023-01-16T02:26:21;8.27;;;5.72;;
43511;SDS011;34054;52.100;5.116;2023-01-16T02:27:48;9.38;;;4.90;;
43511;SDS011;34054;52.100;5.116;2023-01-16T02:29:01;18.40;;;7.07;;
43511;SDS011;34054;52.100;5.116;2023-01-16T02:30:22;8.52;;;6.63;;
43511;SDS011;34054;52.100;5.116;2023-01-16T02:31:34;8.90;;;5.18;;
43511;SDS011;34054;52.100;5.116;2023-01-16T02:32:21;10.13;;;5.28;;
43511;SDS011;34054;52.100;5.116;2023-01-16T02:33:15;15.13;;;6.15;;
43511;SDS011;34054;52.100;5.116;2023-01-16T02:34:06;6.18;;;5.20;;
43511;SDS011;34054;52.100;5.116;2023-01-16T02:35:02;9.63;;;6.65;;
43511;SDS011;34054;52.100;5.116;2023-01-16T02:35:58;7.22;;;5.18;;
43511;SDS011;34054;52.100;5.116;2023-01-16T02:36:43;21.88;;;7.00;;
43511;SDS011;34054;52.100;5.116;2023-01-16T02:37:33;10.05;;;5.85;;
43511;SDS011;34054;52.100;5.116;2023-01-16T02:38:18;11.30;;;5.22;;
43511;SDS011;34054;52.100;5.116;2023-01-16T02:39:09;10.45;;;6.80;;
43511;SDS011;34054;52.100;5.116;2023-01-16T02:39:52;12.15;;;7.20;;
43511;SDS011;34054;52.100;5.116;2023-01-16T02:40:42;5.13;;;4.60;;
43511;SDS011;34054;52.100;5.116;2023-01-16T02:41:26;11.43;;;4.28;;
43511;SDS011;34054;52.100;5.116;2023-01-16T02:42:13;11.10;;;5.45;;
43511;SDS011;34054;52.100;5.116;2023-01-16T02:42:57;10.05;;;5.72;;
43511;SDS011;34054;52.100;5.116;2023-01-16T02:43:46;5.50;;;3.70;;
43511;SDS011;34054;52.100;5.116;2023-01-16T02:44:29;9.13;;;4.05;;
43511;SDS011;34054;52.100;5.116;2023-01-16T02:45:17;7.72;;;4.78;;
43511;SDS011;34054;52.100;5.116;2023-01-16T02:46:04;8.60;;;5.38;;
43511;SDS011;34054;52.100;5.116;2023-01-16T02:46:48;7.90;;;5.35;;
43511;SDS011;34054;52.100;5.116;2023-01-16T02:47:30;6.75;;;5.78;;
43511;SDS011;34054;52.100;5.116;2023-01-16T02:48:18;9.60;;;5.68;;
43511;SDS011;34054;52.100;5.116;2023-01-16T02:49:06;9.75;;;4.65;;
43511;SDS011;34054;52.100;5.116;2023-01-16T02:49:49;11.30;;;5.75;;
43511;SDS011;34054;52.100;5.116;2023-01-16T02:50:35;6.45;;;5.38;;
43511;SDS011;34054;52.100;5.116;2023-01-16T02:51:22;6.68;;;5.53;;
43511;SDS011;34054;52.100;5.116;2023-01-16T02:52:03;5.45;;;4.55;;
43511;SDS011;34054;52.100;5.116;2023-01-16T02:52:45;11.45;;;6.90;;
43511;SDS011;34054;52.100;5.116;2023-01-16T02:53:27;7.78;;;5.88;;
43511;SDS011;34054;52.100;5.116;2023-01-16T02:54:07;4.68;;;3.80;;
43511;SDS011;34054;52.100;5.116;2023-01-16T02:54:50;7.40;;;5.55;;
43511;SDS011;34054;52.100;5.116;2023-01-16T02:55:32;6.40;;;4.05;;
43511;SDS011;34054;52.100;5.116;2023-01-16T02:56:10;7.38;;;6.00;;
43511;SDS011;34054;52.100;5.116;2023-01-16T02:56:51;4.28;;;3.63;;
43511;SDS011;34054;52.100;5.116;2023-01-16T02:57:31;7.15;;;5.07;;
43511;SDS011;34054;52.100;5.116;2023-01-16T02:58:09;6.15;;;4.30;;
43511;SDS011;34054;52.100;5.116;2023-01-16T02:58:45;9.52;;;4.78;;
43511;SDS011;34054;52.100;5.116;2023-01-16T02:59:20;8.07;;;6.28;;
43511;SDS011;34054;52.100;5.116;2023-01-16T02:59:55;8.30;;;4.53;;
43511;SDS011;34054;52.100;5.116;2023-01-16T03:00:27;6.75;;;3.92;;
43511;SDS011;34054;52.100;5.116;2023-01-16T03:01:01;8.48;;;4.78;;
43511;SDS011;34054;52.100;5.116;2023-01-16T03:01:35;10.45;;;4.72;;
43511;SDS011;34054;52.100;5.116;2023-01-16T03:02:11;6.00;;;4.45;;
43511;SDS011;34054;52.100;5.116;2023-01-16T03:02:43;8.77;;;4.20;;
43511;SDS011;34054;52.100;5.116;2023-01-16T03:03:29;13.80;;;4.95;;
43511;SDS011;34054;52.100;5.116;2023-01-16T03:05:19;11.43;;;4.60;;
43511;SDS011;34054;52.100;5.116;2023-01-16T03:05:51;5.40;;;3.08;;
43511;SDS011;34054;52.100;5.116;2023-01-16T03:06:38;5.47;;;4.13;;
43511;SDS011;34054;52.100;5.116;2023-01-16T03:08:40;7.78;;;3.30;;
43511;SDS011;34054;52.100;5.116;2023-01-16T03:09:28;7.45;;;2.90;;
43511;SDS011;34054;52.100;5.116;2023-01-16T03:10:17;9.60;;;2.90;;
43511;SDS011;34054;52.100;5.116;2023-01-16T03:11:13;8.50;;;2.80;;
43511;SDS011;34054;52.100;5.116;2023-01-16T03:11:56;4.78;;;3.38;;
43511;SDS011;34054;52.100;5.116;2023-01-16T03:12:50;6.60;;;4.05;;
43511;SDS011;34054;52.100;5.116;2023-01-16T03:13:46;4.75;;;2.85;;
43511;SDS011;34054;52.100;5.116;2023-01-16T03:14:34;2.25;;;2.03;;
43511;SDS011;34054;52.100;5.116;2023-01-16T03:15:18;4.97;;;2.90;;
43511;SDS011;34054;52.100;5.116;2023-01-16T03:16:00;7.78;;;3.38;;
43511;SDS011;34054;52.100;5.116;2023-01-16T03:16:47;4.15;;;2.97;;
43511;SDS011;34054;52.100;5.116;2023-01-16T03:17:42;6.90;;;3.50;;
43511;SDS011;34054;52.100;5.116;2023-01-16T03:18:33;7.43;;;3.08;;
43511;SDS011;34054;52.100;5.116;2023-01-16T03:19:19;8.30;;;4.10;;
43511;SDS011;34054;52.100;5.116;2023-01-16T03:20:08;7.00;;;2.17;;
43511;SDS011;34054;52.100;5.116;2023-01-16T03:20:57;6.57;;;2.53;;
43511;SDS011;34054;52.100;5.116;2023-01-16T03:21:41;6.00;;;2.58;;
43511;SDS011;34054;52.100;5.116;2023-01-16T03:22:26;6.85;;;3.17;;
43511;SDS011;34054;52.100;5.116;2023-01-16T03:23:08;5.38;;;3.05;;
43511;SDS011;34054;52.100;5.116;2023-01-16T03:23:49;3.40;;;2.45;;
43511;SDS011;34054;52.100;5.116;2023-01-16T03:24:27;5.85;;;3.35;;
43511;SDS011;34054;52.100;5.116;2023-01-16T03:25:17;4.97;;;2.97;;
43511;SDS011;34054;52.100;5.116;2023-01-16T03:26:00;7.43;;;2.95;;
43511;SDS011;34054;52.100;5.116;2023-01-16T03:26:40;3.50;;;1.75;;
43511;SDS011;34054;52.100;5.116;2023-01-16T03:27:17;4.43;;;2.63;;
43511;SDS011;34054;52.100;5.116;2023-01-16T03:28:09;6.63;;;2.88;;
43511;SDS011;34054;52.100;5.116;2023-01-16T03:28:54;12.73;;;3.13;;
43511;SDS011;34054;52.100;5.116;2023-01-16T03:29:39;4.90;;;2.35;;
43511;SDS011;34054;52.100;5.116;2023-01-16T03:30:26;6.70;;;2.35;;
43511;SDS011;34054;52.100;5.116;2023-01-16T03:31:09;3.10;;;2.42;;
43511;SDS011;34054;52.100;5.116;2023-01-16T03:31:52;3.95;;;2.88;;
43511;SDS011;34054;52.100;5.116;2023-01-16T03:32:32;5.45;;;2.55;;
43511;SDS011;34054;52.100;5.116;2023-01-16T03:33:13;11.70;;;4.22;;
43511;SDS011;34054;52.100;5.116;2023-01-16T03:34:01;6.32;;;3.08;;
43511;SDS011;34054;52.100;5.116;2023-01-16T03:34:45;8.45;;;2.38;;
43511;SDS011;34054;52.100;5.116;2023-01-16T03:36:03;2.95;;;1.92;;
43511;SDS011;34054;52.100;5.116;2023-01-16T03:36:42;5.38;;;2.53;;
43511;SDS011;34054;52.100;5.116;2023-01-16T03:37:24;8.32;;;2.72;;
43511;SDS011;34054;52.100;5.116;2023-01-16T03:38:02;3.00;;;1.58;;
43511;SDS011;34054;52.100;5.116;2023-01-16T03:38:39;3.20;;;1.95;;
43511;SDS011;34054;52.100;5.116;2023-01-16T03:39:16;3.42;;;2.35;;
43511;SDS011;34054;52.100;5.116;2023-01-16T03:39:56;2.97;;;1.70;;
43511;SDS011;34054;52.100;5.116;2023-01-16T03:40:33;7.00;;;2.50;;
43511;SDS011;34054;52.100;5.116;2023-01-16T03:41:10;2.15;;;1.92;;
43511;SDS011;34054;52.100;5.116;2023-01-16T03:41:50;2.60;;;2.13;;
43511;SDS011;34054;52.100;5.116;2023-01-16T03:42:27;2.55;;;1.60;;
43511;SDS011;34054;52.100;5.116;2023-01-16T03:43:08;11.88;;;3.08;;
43511;SDS011;34054;52.100;5.116;2023-01-16T03:44:25;6.22;;;2.40;;
43511;SDS011;34054;52.100;5.116;2023-01-16T03:45:04;3.47;;;1.90;;
43511;SDS011;34054;52.100;5.116;2023-01-16T03:46:23;7.53;;;2.15;;
43511;SDS011;34054;52.100;5.116;2023-01-16T03:47:01;12.15;;;3.05;;
43511;SDS011;34054;52.100;5.116;2023-01-16T03:47:41;6.93;;;2.00;;
43511;SDS011;34054;52.100;5.116;2023-01-16T03:48:27;2.72;;;2.15;;
43511;SDS011;34054;52.100;5.116;2023-01-16T03:49:09;1.58;;;1.25;;
43511;SDS011;34054;52.100;5.116;2023-01-16T03:49:47;12.23;;;3.13;;
43511;SDS011;34054;52.100;5.116;2023-01-16T03:50:27;6.43;;;2.75;;